createdAt,value
2019-02-14T00:01:48.482Z,19.83
2019-02-14T00:04:20.795Z,19.79
2019-02-14T00:06:53.241Z,19.80
2019-02-14T00:09:25.462Z,19.82
2019-02-14T00:11:58.194Z,19.80
2019-02-14T00:14:30.634Z,19.79
2019-02-14T00:17:02.646Z,19.82
2019-02-14T00:19:34.916Z,19.82
2019-02-14T00:22:07.203Z,19.82
2019-02-14T00:24:39.384Z,19.83
2019-02-14T00:27:11.691Z,19.82
2019-02-14T00:32:14.093Z,19.83
2019-02-14T00:34:46.431Z,19.82
2019-02-14T00:37:18.837Z,19.82
2019-02-14T00:39:51.360Z,19.82
2019-02-14T00:42:24.714Z,19.82
2019-02-14T00:44:56.892Z,19.80
2019-02-14T00:47:29.223Z,19.82
2019-02-14T00:50:01.596Z,19.82
2019-02-14T00:52:33.672Z,19.81
2019-02-14T00:55:06.051Z,19.80
2019-02-14T00:57:38.197Z,19.81
2019-02-14T01:00:11.229Z,19.82
2019-02-14T01:02:43.343Z,19.79
2019-02-14T01:05:16.526Z,19.78
2019-02-14T01:07:48.909Z,19.77
2019-02-14T01:10:21.230Z,19.80
2019-02-14T01:12:55.678Z,19.79
2019-02-14T01:15:29.409Z,19.79
2019-02-14T01:18:01.547Z,19.82
2019-02-14T01:20:33.741Z,19.79
2019-02-14T01:23:06.847Z,19.78
2019-02-14T01:25:39.102Z,19.78
2019-02-14T01:28:11.444Z,19.77
2019-02-14T01:30:43.783Z,19.77
2019-02-14T01:33:17.257Z,19.77
2019-02-14T01:35:49.617Z,19.78
2019-02-14T01:38:21.872Z,19.78
2019-02-14T01:40:54.039Z,19.76
2019-02-14T01:43:26.468Z,19.77
2019-02-14T01:45:58.539Z,19.75
2019-02-14T01:48:31.988Z,19.75
2019-02-14T01:51:04.092Z,19.74
2019-02-14T01:53:36.440Z,19.74
2019-02-14T01:56:08.729Z,19.72
2019-02-14T01:58:40.995Z,19.75
2019-02-14T02:01:13.494Z,19.76
2019-02-14T02:03:46.027Z,19.75
2019-02-14T02:06:18.143Z,19.75
2019-02-14T02:08:50.491Z,19.74
2019-02-14T02:11:22.614Z,19.73
2019-02-14T02:13:54.864Z,19.75
2019-02-14T02:16:27.049Z,19.73
2019-02-14T02:19:01.286Z,19.75
2019-02-14T02:21:33.438Z,19.68
2019-02-14T02:24:05.828Z,19.68
2019-02-14T02:26:38.104Z,19.67
2019-02-14T02:29:10.311Z,19.68
2019-02-14T02:31:42.604Z,19.66
2019-02-14T02:34:14.870Z,19.65
2019-02-14T02:36:47.034Z,19.64
2019-02-14T02:39:19.333Z,19.64
2019-02-14T02:41:51.464Z,19.63
2019-02-14T02:44:23.844Z,19.64
2019-02-14T02:46:56.044Z,19.65
2019-02-14T02:49:29.446Z,19.60
2019-02-14T02:52:01.849Z,19.60
2019-02-14T02:54:34.092Z,19.59
2019-02-14T02:57:06.230Z,19.61
2019-02-14T02:59:38.499Z,19.62
2019-02-14T03:02:10.693Z,19.62
2019-02-14T03:04:42.830Z,19.60
2019-02-14T03:07:14.972Z,19.60
2019-02-14T03:09:47.187Z,19.59
2019-02-14T03:12:19.556Z,19.60
2019-02-14T03:14:51.722Z,19.58
2019-02-14T03:17:23.959Z,19.56
2019-02-14T03:19:56.144Z,19.54
2019-02-14T03:22:28.314Z,19.56
2019-02-14T03:25:00.839Z,19.57
2019-02-14T03:27:33.141Z,19.55
2019-02-14T03:30:06.006Z,19.54
2019-02-14T03:32:38.207Z,19.54
2019-02-14T03:35:10.364Z,19.56
2019-02-14T03:37:44.214Z,19.56
2019-02-14T03:40:16.664Z,19.56
2019-02-14T03:42:48.916Z,19.55
2019-02-14T03:45:21.051Z,19.54
2019-02-14T03:47:53.233Z,19.52
2019-02-14T03:50:25.403Z,19.52
2019-02-14T03:52:57.665Z,19.52
2019-02-14T03:55:29.878Z,19.52
2019-02-14T03:58:02.106Z,19.51
2019-02-14T04:00:34.138Z,19.51
2019-02-14T04:03:06.347Z,19.51
2019-02-14T04:05:38.452Z,19.50
2019-02-14T04:08:10.548Z,19.50
2019-02-14T04:10:42.608Z,19.50
2019-02-14T04:13:14.904Z,19.49
2019-02-14T04:15:46.950Z,19.49
2019-02-14T04:18:19.227Z,19.48
2019-02-14T04:20:51.283Z,19.48
2019-02-14T04:23:25.429Z,19.49
2019-02-14T04:25:57.626Z,19.46
2019-02-14T04:28:29.835Z,19.46
2019-02-14T04:31:02.170Z,19.46
2019-02-14T04:33:34.366Z,19.46
2019-02-14T04:36:06.625Z,19.46
2019-02-14T04:38:38.801Z,19.46
2019-02-14T04:41:11.068Z,19.45
2019-02-14T04:43:43.287Z,19.45
2019-02-14T04:46:15.417Z,19.44
2019-02-14T04:48:47.568Z,19.45
2019-02-14T04:51:19.773Z,19.45
2019-02-14T04:53:51.926Z,19.44
2019-02-14T04:56:24.073Z,19.44
2019-02-14T04:58:56.251Z,19.45
2019-02-14T05:01:28.379Z,19.45
2019-02-14T05:04:00.403Z,19.44
2019-02-14T05:06:32.538Z,19.44
2019-02-14T05:09:05.857Z,19.43
2019-02-14T05:11:38.006Z,19.43
2019-02-14T05:14:10.189Z,19.43
2019-02-14T05:16:42.565Z,19.43
2019-02-14T05:19:14.699Z,19.44
2019-02-14T05:21:46.891Z,19.42
2019-02-14T05:24:19.303Z,19.43
2019-02-14T05:26:51.507Z,19.42
2019-02-14T05:29:23.786Z,19.42
2019-02-14T05:31:55.789Z,19.42
2019-02-14T05:34:28.298Z,19.41
2019-02-14T05:37:00.395Z,19.41
2019-02-14T05:39:32.664Z,19.41
2019-02-14T05:42:08.113Z,19.41
2019-02-14T05:44:40.301Z,19.41
2019-02-14T05:47:12.489Z,19.40
2019-02-14T05:49:44.529Z,19.40
2019-02-14T05:52:17.702Z,19.41
2019-02-14T05:54:49.852Z,19.40
2019-02-14T05:57:22.078Z,19.40
2019-02-14T05:59:54.280Z,19.40
2019-02-14T06:02:26.293Z,19.40
2019-02-14T06:04:58.393Z,19.40
2019-02-14T06:07:30.575Z,19.40
2019-02-14T06:10:02.739Z,19.40
2019-02-14T06:12:34.899Z,19.40
2019-02-14T06:15:07.198Z,19.40
2019-02-14T06:17:39.384Z,19.40
2019-02-14T06:20:11.836Z,19.39
2019-02-14T06:22:43.989Z,19.39
2019-02-14T06:25:16.187Z,19.39
2019-02-14T06:27:48.544Z,19.39
2019-02-14T06:30:20.611Z,19.39
2019-02-14T06:32:52.743Z,19.39
2019-02-14T06:35:25.040Z,19.39
2019-02-14T06:37:57.123Z,19.38
2019-02-14T06:40:29.375Z,19.38
2019-02-14T06:43:01.477Z,19.38
2019-02-14T06:45:33.678Z,19.39
2019-02-14T06:48:05.766Z,19.39
2019-02-14T06:50:38.215Z,19.38
2019-02-14T06:53:10.258Z,19.39
2019-02-14T06:55:42.537Z,19.38
2019-02-14T06:58:14.729Z,19.39
2019-02-14T07:00:46.897Z,19.39
2019-02-14T07:03:19.194Z,19.37
2019-02-14T07:05:51.601Z,19.37
2019-02-14T07:08:23.817Z,19.38
2019-02-14T07:10:57.693Z,19.37
2019-02-14T07:13:29.935Z,19.38
2019-02-14T07:16:02.580Z,19.38
2019-02-14T07:18:34.743Z,19.37
2019-02-14T07:21:07.113Z,19.38
2019-02-14T07:23:39.187Z,19.38
2019-02-14T07:26:11.564Z,19.38
2019-02-14T07:28:43.694Z,19.37
2019-02-14T07:31:16.212Z,19.37
2019-02-14T07:33:48.381Z,19.38
2019-02-14T07:36:20.670Z,19.38
2019-02-14T07:38:53.548Z,19.37
2019-02-14T07:41:25.694Z,19.37
2019-02-14T07:43:57.881Z,19.37
2019-02-14T07:46:30.024Z,19.37
2019-02-14T07:49:02.245Z,19.37
2019-02-14T07:51:34.550Z,19.38
2019-02-14T07:54:07.759Z,19.38
2019-02-14T07:56:40.446Z,19.37
2019-02-14T07:59:12.857Z,19.37
2019-02-14T08:01:45.048Z,19.38
2019-02-14T08:04:17.161Z,19.37
2019-02-14T08:06:49.564Z,19.38
2019-02-14T08:09:21.645Z,19.37
2019-02-14T08:11:55.047Z,19.38
2019-02-14T08:14:27.188Z,19.38
2019-02-14T08:16:59.672Z,19.38
2019-02-14T08:19:32.057Z,19.38
2019-02-14T08:22:04.419Z,19.38
2019-02-14T08:24:36.798Z,19.37
2019-02-14T08:27:09.007Z,19.38
2019-02-14T08:29:41.129Z,19.38
2019-02-14T08:32:13.279Z,19.38
2019-02-14T08:34:45.456Z,19.37
2019-02-14T08:37:17.627Z,19.39
2019-02-14T08:39:49.792Z,19.38
2019-02-14T08:42:22.257Z,19.39
2019-02-14T08:44:54.459Z,19.38
2019-02-14T08:47:26.857Z,19.38
2019-02-14T08:49:59.059Z,19.38
2019-02-14T08:52:31.380Z,19.39
2019-02-14T08:55:03.639Z,19.38
2019-02-14T08:57:36.032Z,19.39
2019-02-14T09:00:08.651Z,19.39
2019-02-14T09:02:41.695Z,19.39
2019-02-14T09:05:13.824Z,19.38
2019-02-14T09:07:54.148Z,19.39
2019-02-14T09:10:20.153Z,19.39
2019-02-14T09:12:52.616Z,19.39
2019-02-14T09:15:25.828Z,19.40
2019-02-14T09:17:58.069Z,19.40
2019-02-14T09:20:30.288Z,19.39
2019-02-14T09:23:03.039Z,19.39
2019-02-14T09:25:35.759Z,19.40
2019-02-14T09:28:08.241Z,19.40
2019-02-14T09:30:40.574Z,19.40
2019-02-14T09:33:13.020Z,19.40
2019-02-14T09:35:45.270Z,19.40
2019-02-14T09:38:17.900Z,19.40
2019-02-14T09:40:51.191Z,19.40
2019-02-14T09:43:29.659Z,19.41
2019-02-14T09:45:58.602Z,19.41
2019-02-14T09:48:32.316Z,19.42
2019-02-14T09:51:05.155Z,19.41
2019-02-14T09:53:37.666Z,19.41
2019-02-14T09:56:10.024Z,19.41
2019-02-14T09:58:43.812Z,19.42
2019-02-14T10:01:15.882Z,19.42
2019-02-14T10:03:48.535Z,19.42
2019-02-14T10:06:21.003Z,19.42
2019-02-14T10:08:54.984Z,19.43
2019-02-14T10:11:27.300Z,19.44
2019-02-14T10:13:59.639Z,19.42
2019-02-14T10:16:31.999Z,19.43
2019-02-14T10:19:05.960Z,19.43
2019-02-14T10:21:39.194Z,19.43
2019-02-14T10:24:11.627Z,19.43
2019-02-14T10:26:44.078Z,19.43
2019-02-14T10:29:16.293Z,19.45
2019-02-14T10:31:48.535Z,19.43
2019-02-14T10:34:20.733Z,19.44
2019-02-14T10:36:53.009Z,19.44
2019-02-14T10:39:26.095Z,19.44
2019-02-14T10:41:58.287Z,19.45
2019-02-14T10:44:30.547Z,19.45
2019-02-14T10:47:02.542Z,19.45
2019-02-14T10:49:34.693Z,19.46
2019-02-14T10:52:08.583Z,19.45
2019-02-14T10:54:40.831Z,19.46
2019-02-14T10:57:12.927Z,19.46
2019-02-14T10:59:45.083Z,19.46
2019-02-14T11:02:17.263Z,19.47
2019-02-14T11:04:49.519Z,19.46
2019-02-14T11:07:21.531Z,19.48
2019-02-14T11:09:54.576Z,19.48
2019-02-14T11:12:26.738Z,19.48
2019-02-14T11:14:59.019Z,19.49
2019-02-14T11:17:31.049Z,19.49
2019-02-14T11:20:03.357Z,19.48
2019-02-14T11:22:35.585Z,19.50
2019-02-14T11:25:08.342Z,19.50
2019-02-14T11:27:40.598Z,19.50
2019-02-14T11:30:13.290Z,19.50
2019-02-14T11:32:45.519Z,19.50
2019-02-14T11:35:17.696Z,19.51
2019-02-14T11:37:49.890Z,19.51
2019-02-14T11:40:22.029Z,19.51
2019-02-14T11:42:54.374Z,19.51
2019-02-14T11:45:26.673Z,19.52
2019-02-14T11:47:59.129Z,19.51
2019-02-14T11:50:31.455Z,19.52
2019-02-14T11:53:03.919Z,19.52
2019-02-14T11:55:36.042Z,19.52
2019-02-14T11:58:08.310Z,19.52
2019-02-14T12:00:40.655Z,19.52
2019-02-14T12:03:12.689Z,19.54
2019-02-14T12:05:44.997Z,19.53
2019-02-14T12:08:17.050Z,19.53
2019-02-14T12:10:49.467Z,19.54
2019-02-14T12:13:21.813Z,19.53
2019-02-14T12:15:55.108Z,19.54
2019-02-14T12:18:27.185Z,19.55
2019-02-14T12:20:59.322Z,19.55
2019-02-14T12:23:31.505Z,19.55
2019-02-14T12:26:07.018Z,19.56
2019-02-14T12:28:39.160Z,19.56
2019-02-14T12:31:11.271Z,19.56
2019-02-14T12:33:43.435Z,19.57
2019-02-14T12:36:15.565Z,19.57
2019-02-14T12:38:47.979Z,19.57
2019-02-14T12:41:20.269Z,19.57
2019-02-14T12:43:52.662Z,19.57
2019-02-14T12:46:24.850Z,19.58
2019-02-14T12:48:57.174Z,19.59
2019-02-14T12:51:29.316Z,19.59
2019-02-14T12:54:01.501Z,19.59
2019-02-14T12:56:33.693Z,19.60
2019-02-14T12:59:05.952Z,19.59
2019-02-14T13:01:38.138Z,19.59
2019-02-14T13:04:10.816Z,19.60
2019-02-14T13:06:42.947Z,19.60
2019-02-14T13:09:20.088Z,19.61
2019-02-14T13:11:48.814Z,19.61
2019-02-14T13:14:20.994Z,19.62
2019-02-14T13:16:53.244Z,19.62
2019-02-14T13:19:25.369Z,19.62
2019-02-14T13:21:57.506Z,19.61
2019-02-14T13:24:29.667Z,19.63
2019-02-14T13:27:01.848Z,19.63
2019-02-14T13:29:34.066Z,19.65
2019-02-14T13:32:06.125Z,19.63
2019-02-14T13:34:38.483Z,19.64
2019-02-14T13:37:10.696Z,19.64
2019-02-14T13:39:42.887Z,19.64
2019-02-14T13:42:15.112Z,19.66
2019-02-14T13:44:47.246Z,19.64
2019-02-14T13:47:19.425Z,19.65
2019-02-14T13:49:51.562Z,19.65
2019-02-14T13:52:24.017Z,19.67
2019-02-14T13:54:56.370Z,19.67
2019-02-14T13:57:28.774Z,19.67
2019-02-14T14:00:01.813Z,19.68
2019-02-14T14:02:35.048Z,19.66
2019-02-14T14:05:07.114Z,19.69
2019-02-14T14:07:40.663Z,19.68
2019-02-14T14:10:13.039Z,19.70
2019-02-14T14:12:45.204Z,19.70
2019-02-14T14:15:17.311Z,19.68
2019-02-14T14:17:49.440Z,19.71
2019-02-14T14:20:21.674Z,19.70
2019-02-14T14:22:54.058Z,19.70
2019-02-14T14:25:26.089Z,19.70
2019-02-14T14:27:58.310Z,19.70
2019-02-14T14:30:30.493Z,19.71
2019-02-14T14:33:02.811Z,19.71
2019-02-14T14:35:35.197Z,19.71
2019-02-14T14:38:07.569Z,19.71
2019-02-14T14:40:39.919Z,19.72
2019-02-14T14:43:33.770Z,19.72
2019-02-14T14:46:25.199Z,19.72
2019-02-14T14:48:57.436Z,19.72
2019-02-14T14:51:29.698Z,19.73
2019-02-14T14:54:02.296Z,19.73
2019-02-14T14:56:34.696Z,19.73
2019-02-14T14:59:07.064Z,19.70
2019-02-14T15:01:39.446Z,19.73
2019-02-14T15:04:11.555Z,19.72
2019-02-14T15:06:43.706Z,19.71
2019-02-14T15:09:15.987Z,19.74
2019-02-14T15:11:48.365Z,19.74
2019-02-14T15:14:20.625Z,19.74
2019-02-14T15:16:52.812Z,19.71
2019-02-14T15:19:25.032Z,19.73
2019-02-14T15:21:57.235Z,19.73
2019-02-14T15:24:29.435Z,19.72
2019-02-14T15:27:01.705Z,19.73
2019-02-14T15:29:33.816Z,19.73
2019-02-14T15:32:06.274Z,19.75
2019-02-14T15:34:38.489Z,19.74
2019-02-14T15:37:12.633Z,19.74
2019-02-14T15:39:44.869Z,19.74
2019-02-14T15:42:17.160Z,19.76
2019-02-14T15:44:49.582Z,19.75
2019-02-14T15:47:21.869Z,19.74
2019-02-14T15:49:54.046Z,19.73
2019-02-14T15:52:27.545Z,19.74
2019-02-14T15:55:00.260Z,19.75
2019-02-14T15:57:32.394Z,19.73
2019-02-14T16:00:07.067Z,19.72
2019-02-14T16:02:38.694Z,19.73
2019-02-14T16:05:10.899Z,19.73
2019-02-14T16:07:43.056Z,19.73
2019-02-14T16:10:18.664Z,19.74
2019-02-14T16:12:49.130Z,19.74
2019-02-14T16:15:22.353Z,19.74
2019-02-14T16:17:56.892Z,19.76
2019-02-14T16:20:29.335Z,19.75
2019-02-14T16:23:04.151Z,19.76
2019-02-14T16:25:36.504Z,19.75
2019-02-14T16:28:09.885Z,19.75
2019-02-14T16:30:42.739Z,19.74
2019-02-14T16:33:14.878Z,19.75
2019-02-14T16:35:47.267Z,19.75
2019-02-14T16:38:19.390Z,19.75
2019-02-14T16:40:51.579Z,19.75
2019-02-14T16:43:23.810Z,19.76
2019-02-14T16:45:55.920Z,19.76
2019-02-14T16:48:28.089Z,19.75
2019-02-14T16:51:00.391Z,19.75
2019-02-14T16:53:32.825Z,19.73
2019-02-14T16:56:05.219Z,19.73
2019-02-14T16:58:37.790Z,19.73
2019-02-14T17:01:10.110Z,19.73
2019-02-14T17:03:42.430Z,19.74
2019-02-14T17:06:14.614Z,19.74
2019-02-14T17:08:46.766Z,19.74
2019-02-14T17:11:19.298Z,19.75
2019-02-14T17:13:51.499Z,19.73
2019-02-14T17:16:23.690Z,19.74
2019-02-14T17:18:55.834Z,19.73
2019-02-14T17:21:27.996Z,19.73
2019-02-14T17:24:00.245Z,19.72
2019-02-14T17:26:32.523Z,19.72
2019-02-14T17:29:04.800Z,19.72
2019-02-14T17:31:37.203Z,19.73
2019-02-14T17:34:09.507Z,19.73
2019-02-14T17:36:42.144Z,19.72
2019-02-14T17:39:14.612Z,19.73
2019-02-14T17:41:46.771Z,19.73
2019-02-14T17:44:19.095Z,19.72
2019-02-14T17:46:51.221Z,19.73
2019-02-14T17:49:23.336Z,19.73
2019-02-14T17:51:55.733Z,19.72
2019-02-14T17:54:28.012Z,19.72
2019-02-14T17:57:00.359Z,19.72
2019-02-14T17:59:32.408Z,19.73
2019-02-14T18:02:05.023Z,19.74
2019-02-14T18:04:37.215Z,19.74
2019-02-14T18:07:09.610Z,19.73
2019-02-14T18:09:42.182Z,19.73
2019-02-14T18:12:14.485Z,19.75
2019-02-14T18:14:46.594Z,19.74
2019-02-14T18:17:19.013Z,19.72
2019-02-14T18:19:51.308Z,19.73
2019-02-14T18:22:23.525Z,19.73
2019-02-14T18:24:56.876Z,19.73
2019-02-14T18:27:29.081Z,19.71
2019-02-14T18:30:01.489Z,19.72
2019-02-14T18:32:33.818Z,19.71
2019-02-14T18:35:06.036Z,19.70
2019-02-14T18:37:38.542Z,19.71
2019-02-14T18:40:11.407Z,19.72
2019-02-14T18:42:43.938Z,19.73
2019-02-14T18:45:16.118Z,19.72
2019-02-14T18:47:48.471Z,19.73
2019-02-14T18:50:20.718Z,19.74
2019-02-14T18:52:54.001Z,19.73
2019-02-14T18:55:26.161Z,19.74
2019-02-14T18:57:58.391Z,19.74
2019-02-14T19:00:30.601Z,19.72
2019-02-14T19:03:02.789Z,19.73
2019-02-14T19:05:34.952Z,19.73
2019-02-14T19:08:07.140Z,19.74
2019-02-14T19:10:39.415Z,19.73
2019-02-14T19:13:12.782Z,19.73
2019-02-14T19:15:45.107Z,19.74
2019-02-14T19:18:17.356Z,19.73
2019-02-14T19:20:49.563Z,19.74
2019-02-14T19:23:24.299Z,19.73
2019-02-14T19:25:56.616Z,19.73
2019-02-14T19:28:28.830Z,19.73
2019-02-14T19:31:00.892Z,19.72
2019-02-14T19:33:33.169Z,19.73
2019-02-14T19:36:05.217Z,19.72
2019-02-14T19:38:37.534Z,19.72
2019-02-14T19:41:09.766Z,19.72
2019-02-14T19:43:42.030Z,19.72
2019-02-14T19:46:14.093Z,19.73
2019-02-14T19:48:46.369Z,19.73
2019-02-14T19:51:18.563Z,19.72
2019-02-14T19:53:50.680Z,19.71
2019-02-14T19:56:22.944Z,19.72
2019-02-14T19:58:55.246Z,19.70
2019-02-14T20:01:27.439Z,19.69
2019-02-14T20:04:00.469Z,19.70
2019-02-14T20:06:32.895Z,19.69
2019-02-14T20:09:05.614Z,19.70
2019-02-14T20:11:38.941Z,19.70
2019-02-14T20:14:10.956Z,19.70
2019-02-14T20:16:43.330Z,19.70
2019-02-14T20:19:15.492Z,19.69
2019-02-14T20:21:47.887Z,19.68
2019-02-14T20:24:20.090Z,19.68
2019-02-14T20:26:52.398Z,19.69
2019-02-14T20:29:24.409Z,19.68
2019-02-14T20:31:56.752Z,19.69
2019-02-14T20:34:29.070Z,19.68
2019-02-14T20:37:01.437Z,19.67
2019-02-14T20:39:33.599Z,19.67
2019-02-14T20:42:05.818Z,19.67
2019-02-14T20:44:38.287Z,19.66
2019-02-14T20:47:10.394Z,19.66
2019-02-14T20:49:42.733Z,19.66
2019-02-14T20:52:15.965Z,19.66
2019-02-14T20:54:48.218Z,19.64
2019-02-14T20:57:20.382Z,19.62
2019-02-14T20:59:52.549Z,19.62
2019-02-14T21:02:24.727Z,19.62
2019-02-14T21:04:56.879Z,19.63
2019-02-14T21:07:29.064Z,19.62
2019-02-14T21:10:01.280Z,19.61
2019-02-14T21:12:33.567Z,19.62
2019-02-14T21:15:05.685Z,19.61
2019-02-14T21:17:38.854Z,19.61
2019-02-14T21:20:10.996Z,19.62
2019-02-14T21:22:43.121Z,19.61
2019-02-14T21:25:15.760Z,19.61
2019-02-14T21:27:48.029Z,19.59
2019-02-14T21:30:20.365Z,19.58
2019-02-14T21:32:53.815Z,19.61
2019-02-14T21:35:25.874Z,19.58
2019-02-14T21:37:58.099Z,19.59
2019-02-14T21:40:30.336Z,19.57
2019-02-14T21:43:02.719Z,19.57
2019-02-14T21:45:34.837Z,19.58
2019-02-14T21:48:07.295Z,19.57
2019-02-14T21:50:39.491Z,19.57
2019-02-14T21:53:11.754Z,19.56
2019-02-14T21:55:43.818Z,19.56
2019-02-14T21:58:15.985Z,19.56
2019-02-14T22:00:48.348Z,19.54
2019-02-14T22:03:20.744Z,19.54
2019-02-14T22:05:53.028Z,19.54
2019-02-14T22:08:25.277Z,19.53
2019-02-14T22:10:57.547Z,19.53
2019-02-14T22:13:29.570Z,19.52
2019-02-14T22:16:02.252Z,19.52
2019-02-14T22:18:34.331Z,19.51
2019-02-14T22:21:06.610Z,19.50
2019-02-14T22:23:38.699Z,19.51
2019-02-14T22:26:10.912Z,19.52
2019-02-14T22:28:43.101Z,19.50
2019-02-14T22:31:15.258Z,19.48
2019-02-14T22:33:47.345Z,19.49
2019-02-14T22:36:19.623Z,19.50
2019-02-14T22:38:51.827Z,19.49
2019-02-14T22:41:23.924Z,19.49
2019-02-14T22:43:55.977Z,19.45
2019-02-14T22:46:29.804Z,19.47
2019-02-14T22:49:01.972Z,19.46
2019-02-14T22:51:34.118Z,19.46
2019-02-14T22:54:06.269Z,19.44
2019-02-14T22:56:38.488Z,19.46
2019-02-14T22:59:10.735Z,19.46
2019-02-14T23:01:43.005Z,19.45
2019-02-14T23:04:15.282Z,19.45
2019-02-14T23:06:47.300Z,19.44
2019-02-14T23:09:19.799Z,19.44
2019-02-14T23:11:51.989Z,19.44
2019-02-14T23:14:24.173Z,19.45
2019-02-14T23:16:56.613Z,19.44
2019-02-14T23:19:28.727Z,19.42
2019-02-14T23:22:00.894Z,19.41
2019-02-14T23:24:33.442Z,19.42
2019-02-14T23:27:05.621Z,19.42
2019-02-14T23:29:39.821Z,19.42
2019-02-14T23:32:11.979Z,19.41
2019-02-14T23:34:44.156Z,19.40
2019-02-14T23:37:16.306Z,19.41
2019-02-14T23:39:48.579Z,19.39
2019-02-14T23:42:21.853Z,19.40
2019-02-14T23:44:54.045Z,19.40
2019-02-14T23:47:26.323Z,19.40
2019-02-14T23:49:58.586Z,19.40
2019-02-14T23:52:31.592Z,19.40
2019-02-14T23:55:03.751Z,19.39
2019-02-14T23:57:35.986Z,19.39
